sensor_id;sensor_type;location;lat;lon;timestamp;P1;durP1;ratioP1;P2;durP2;ratioP2
15412;SDS011;7805;49.554;7.632;2023-08-31T00:01:35;8.97;;;7.60;;
15412;SDS011;7805;49.554;7.632;2023-08-31T00:04:01;10.13;;;8.90;;
15412;SDS011;7805;49.554;7.632;2023-08-31T00:06:26;10.30;;;8.47;;
15412;SDS011;7805;49.554;7.632;2023-08-31T00:08:52;10.77;;;9.10;;
15412;SDS011;7805;49.554;7.632;2023-08-31T00:11:18;14.67;;;9.73;;
15412;SDS011;7805;49.554;7.632;2023-08-31T00:13:44;12.60;;;10.37;;
15412;SDS011;7805;49.554;7.632;2023-08-31T00:16:10;11.37;;;10.10;;
15412;SDS011;7805;49.554;7.632;2023-08-31T00:18:37;11.83;;;9.80;;
15412;SDS011;7805;49.554;7.632;2023-08-31T00:21:03;11.53;;;10.33;;
15412;SDS011;7805;49.554;7.632;2023-08-31T00:23:29;13.60;;;10.90;;
15412;SDS011;7805;49.554;7.632;2023-08-31T00:25:56;10.60;;;9.60;;
15412;SDS011;7805;49.554;7.632;2023-08-31T00:28:22;11.13;;;10.13;;
15412;SDS011;7805;49.554;7.632;2023-08-31T00:30:47;11.63;;;10.43;;
15412;SDS011;7805;49.554;7.632;2023-08-31T00:33:14;11.20;;;10.07;;
15412;SDS011;7805;49.554;7.632;2023-08-31T00:35:40;12.97;;;10.33;;
15412;SDS011;7805;49.554;7.632;2023-08-31T00:38:11;12.83;;;10.37;;
15412;SDS011;7805;49.554;7.632;2023-08-31T00:40:40;10.23;;;9.10;;
15412;SDS011;7805;49.554;7.632;2023-08-31T00:43:07;11.87;;;9.37;;
15412;SDS011;7805;49.554;7.632;2023-08-31T00:45:33;11.10;;;9.33;;
15412;SDS011;7805;49.554;7.632;2023-08-31T00:47:59;13.77;;;9.87;;
15412;SDS011;7805;49.554;7.632;2023-08-31T00:50:25;10.63;;;9.57;;
15412;SDS011;7805;49.554;7.632;2023-08-31T00:52:51;10.57;;;9.57;;
15412;SDS011;7805;49.554;7.632;2023-08-31T00:55:17;10.93;;;8.63;;
15412;SDS011;7805;49.554;7.632;2023-08-31T00:57:43;11.37;;;8.53;;
15412;SDS011;7805;49.554;7.632;2023-08-31T01:00:09;10.27;;;9.17;;
15412;SDS011;7805;49.554;7.632;2023-08-31T01:11:10;14.73;;;10.13;;
15412;SDS011;7805;49.554;7.632;2023-08-31T01:13:44;10.17;;;9.13;;
15412;SDS011;7805;49.554;7.632;2023-08-31T01:16:15;11.87;;;9.97;;
15412;SDS011;7805;49.554;7.632;2023-08-31T01:18:42;9.73;;;8.53;;
15412;SDS011;7805;49.554;7.632;2023-08-31T01:21:25;12.17;;;9.10;;
15412;SDS011;7805;49.554;7.632;2023-08-31T01:23:55;10.90;;;8.77;;
15412;SDS011;7805;49.554;7.632;2023-08-31T01:26:23;11.73;;;9.30;;
15412;SDS011;7805;49.554;7.632;2023-08-31T01:28:49;11.70;;;8.37;;
15412;SDS011;7805;49.554;7.632;2023-08-31T01:31:16;10.00;;;8.70;;
15412;SDS011;7805;49.554;7.632;2023-08-31T01:33:42;11.13;;;9.60;;
15412;SDS011;7805;49.554;7.632;2023-08-31T01:36:12;9.63;;;8.63;;
15412;SDS011;7805;49.554;7.632;2023-08-31T01:38:45;9.30;;;8.40;;
15412;SDS011;7805;49.554;7.632;2023-08-31T01:41:16;10.23;;;8.57;;
15412;SDS011;7805;49.554;7.632;2023-08-31T01:43:44;11.10;;;8.63;;
15412;SDS011;7805;49.554;7.632;2023-08-31T01:46:11;10.67;;;7.90;;
15412;SDS011;7805;49.554;7.632;2023-08-31T01:48:40;10.30;;;8.60;;
15412;SDS011;7805;49.554;7.632;2023-08-31T01:51:09;8.97;;;7.80;;
15412;SDS011;7805;49.554;7.632;2023-08-31T01:53:35;8.73;;;7.83;;
15412;SDS011;7805;49.554;7.632;2023-08-31T01:56:01;9.80;;;7.70;;
15412;SDS011;7805;49.554;7.632;2023-08-31T01:58:27;8.20;;;7.33;;
15412;SDS011;7805;49.554;7.632;2023-08-31T02:00:52;10.93;;;8.27;;
15412;SDS011;7805;49.554;7.632;2023-08-31T02:03:18;10.27;;;7.97;;
15412;SDS011;7805;49.554;7.632;2023-08-31T02:05:44;11.07;;;7.33;;
15412;SDS011;7805;49.554;7.632;2023-08-31T02:08:09;11.70;;;7.23;;
15412;SDS011;7805;49.554;7.632;2023-08-31T02:10:35;10.80;;;7.93;;
15412;SDS011;7805;49.554;7.632;2023-08-31T02:13:00;9.53;;;7.57;;
15412;SDS011;7805;49.554;7.632;2023-08-31T02:15:26;9.13;;;7.87;;
15412;SDS011;7805;49.554;7.632;2023-08-31T02:17:52;9.87;;;7.53;;
15412;SDS011;7805;49.554;7.632;2023-08-31T02:20:19;12.03;;;7.73;;
15412;SDS011;7805;49.554;7.632;2023-08-31T02:22:45;9.90;;;7.33;;
15412;SDS011;7805;49.554;7.632;2023-08-31T02:25:11;9.00;;;7.97;;
15412;SDS011;7805;49.554;7.632;2023-08-31T02:27:38;9.33;;;7.83;;
15412;SDS011;7805;49.554;7.632;2023-08-31T02:30:04;9.27;;;7.93;;
15412;SDS011;7805;49.554;7.632;2023-08-31T02:32:30;8.67;;;7.73;;
15412;SDS011;7805;49.554;7.632;2023-08-31T02:34:56;10.03;;;7.50;;
15412;SDS011;7805;49.554;7.632;2023-08-31T02:37:22;10.23;;;7.70;;
15412;SDS011;7805;49.554;7.632;2023-08-31T02:39:47;10.13;;;7.13;;
15412;SDS011;7805;49.554;7.632;2023-08-31T02:42:13;9.03;;;6.70;;
15412;SDS011;7805;49.554;7.632;2023-08-31T02:44:39;8.77;;;6.47;;
15412;SDS011;7805;49.554;7.632;2023-08-31T02:47:05;7.57;;;6.57;;
15412;SDS011;7805;49.554;7.632;2023-08-31T02:49:31;10.20;;;6.40;;
15412;SDS011;7805;49.554;7.632;2023-08-31T02:51:56;8.60;;;6.30;;
15412;SDS011;7805;49.554;7.632;2023-08-31T02:54:22;8.80;;;6.30;;
15412;SDS011;7805;49.554;7.632;2023-08-31T02:56:47;7.40;;;6.23;;
15412;SDS011;7805;49.554;7.632;2023-08-31T02:59:13;10.20;;;5.73;;
15412;SDS011;7805;49.554;7.632;2023-08-31T03:01:39;9.33;;;6.23;;
15412;SDS011;7805;49.554;7.632;2023-08-31T03:04:05;7.63;;;6.00;;
15412;SDS011;7805;49.554;7.632;2023-08-31T03:06:32;10.50;;;5.77;;
15412;SDS011;7805;49.554;7.632;2023-08-31T03:08:57;8.40;;;5.43;;
15412;SDS011;7805;49.554;7.632;2023-08-31T03:11:23;7.67;;;5.80;;
15412;SDS011;7805;49.554;7.632;2023-08-31T03:13:48;7.27;;;5.30;;
15412;SDS011;7805;49.554;7.632;2023-08-31T03:16:14;7.93;;;6.43;;
15412;SDS011;7805;49.554;7.632;2023-08-31T03:18:39;7.43;;;6.20;;
15412;SDS011;7805;49.554;7.632;2023-08-31T03:21:05;9.33;;;5.83;;
15412;SDS011;7805;49.554;7.632;2023-08-31T03:23:31;7.47;;;6.00;;
15412;SDS011;7805;49.554;7.632;2023-08-31T03:25:56;10.47;;;6.03;;
15412;SDS011;7805;49.554;7.632;2023-08-31T03:28:22;7.77;;;5.77;;
15412;SDS011;7805;49.554;7.632;2023-08-31T03:30:54;8.17;;;6.40;;
15412;SDS011;7805;49.554;7.632;2023-08-31T03:33:20;8.23;;;6.30;;
15412;SDS011;7805;49.554;7.632;2023-08-31T03:35:46;7.23;;;6.50;;
15412;SDS011;7805;49.554;7.632;2023-08-31T03:38:12;7.23;;;5.53;;
15412;SDS011;7805;49.554;7.632;2023-08-31T03:40:37;8.10;;;6.13;;
15412;SDS011;7805;49.554;7.632;2023-08-31T03:43:03;11.27;;;6.90;;
15412;SDS011;7805;49.554;7.632;2023-08-31T03:45:29;8.23;;;6.40;;
15412;SDS011;7805;49.554;7.632;2023-08-31T03:47:54;8.93;;;6.73;;
15412;SDS011;7805;49.554;7.632;2023-08-31T03:50:20;6.90;;;6.30;;
15412;SDS011;7805;49.554;7.632;2023-08-31T03:52:45;9.73;;;5.90;;
15412;SDS011;7805;49.554;7.632;2023-08-31T03:55:11;7.23;;;6.23;;
15412;SDS011;7805;49.554;7.632;2023-08-31T03:57:37;9.23;;;6.90;;
15412;SDS011;7805;49.554;7.632;2023-08-31T04:00:02;9.27;;;6.50;;
15412;SDS011;7805;49.554;7.632;2023-08-31T04:02:33;10.80;;;6.30;;
15412;SDS011;7805;49.554;7.632;2023-08-31T04:05:00;8.63;;;7.03;;
15412;SDS011;7805;49.554;7.632;2023-08-31T04:07:25;10.30;;;7.00;;
15412;SDS011;7805;49.554;7.632;2023-08-31T04:09:51;9.27;;;7.20;;
15412;SDS011;7805;49.554;7.632;2023-08-31T04:12:16;9.60;;;7.30;;
15412;SDS011;7805;49.554;7.632;2023-08-31T04:14:42;6.87;;;6.17;;
15412;SDS011;7805;49.554;7.632;2023-08-31T04:17:08;9.50;;;6.30;;
15412;SDS011;7805;49.554;7.632;2023-08-31T04:19:33;6.70;;;5.57;;
15412;SDS011;7805;49.554;7.632;2023-08-31T04:21:59;8.80;;;6.43;;
15412;SDS011;7805;49.554;7.632;2023-08-31T04:24:24;11.87;;;6.03;;
15412;SDS011;7805;49.554;7.632;2023-08-31T04:26:51;8.23;;;5.60;;
15412;SDS011;7805;49.554;7.632;2023-08-31T04:29:17;9.30;;;5.43;;
15412;SDS011;7805;49.554;7.632;2023-08-31T04:31:42;9.67;;;6.33;;
15412;SDS011;7805;49.554;7.632;2023-08-31T04:34:08;7.37;;;5.30;;
15412;SDS011;7805;49.554;7.632;2023-08-31T04:36:33;7.70;;;5.83;;
15412;SDS011;7805;49.554;7.632;2023-08-31T04:38:59;8.33;;;5.60;;
15412;SDS011;7805;49.554;7.632;2023-08-31T04:41:25;9.03;;;6.00;;
15412;SDS011;7805;49.554;7.632;2023-08-31T04:43:50;7.47;;;5.20;;
15412;SDS011;7805;49.554;7.632;2023-08-31T04:46:16;6.77;;;4.90;;
15412;SDS011;7805;49.554;7.632;2023-08-31T04:48:42;9.37;;;4.80;;
15412;SDS011;7805;49.554;7.632;2023-08-31T04:51:09;9.97;;;5.27;;
15412;SDS011;7805;49.554;7.632;2023-08-31T04:54:04;5.90;;;5.30;;
15412;SDS011;7805;49.554;7.632;2023-08-31T04:56:30;12.20;;;6.53;;
15412;SDS011;7805;49.554;7.632;2023-08-31T04:58:58;6.07;;;5.30;;
15412;SDS011;7805;49.554;7.632;2023-08-31T05:01:24;8.53;;;5.40;;
15412;SDS011;7805;49.554;7.632;2023-08-31T05:03:49;11.80;;;5.53;;
15412;SDS011;7805;49.554;7.632;2023-08-31T05:06:15;6.67;;;4.90;;
15412;SDS011;7805;49.554;7.632;2023-08-31T05:08:40;10.60;;;4.53;;
15412;SDS011;7805;49.554;7.632;2023-08-31T05:11:06;8.10;;;4.63;;
15412;SDS011;7805;49.554;7.632;2023-08-31T05:13:32;8.37;;;5.87;;
15412;SDS011;7805;49.554;7.632;2023-08-31T05:15:57;6.83;;;4.60;;
15412;SDS011;7805;49.554;7.632;2023-08-31T05:18:23;6.13;;;4.50;;
15412;SDS011;7805;49.554;7.632;2023-08-31T05:20:48;5.33;;;4.37;;
15412;SDS011;7805;49.554;7.632;2023-08-31T05:23:14;8.57;;;5.73;;
15412;SDS011;7805;49.554;7.632;2023-08-31T05:25:43;5.87;;;5.10;;
15412;SDS011;7805;49.554;7.632;2023-08-31T05:28:09;8.87;;;5.27;;
15412;SDS011;7805;49.554;7.632;2023-08-31T05:30:35;8.90;;;6.10;;
15412;SDS011;7805;49.554;7.632;2023-08-31T05:33:01;11.13;;;5.47;;
15412;SDS011;7805;49.554;7.632;2023-08-31T05:35:26;6.07;;;4.93;;
15412;SDS011;7805;49.554;7.632;2023-08-31T05:37:52;7.83;;;4.67;;
15412;SDS011;7805;49.554;7.632;2023-08-31T05:40:18;6.13;;;4.10;;
15412;SDS011;7805;49.554;7.632;2023-08-31T05:42:43;9.90;;;4.50;;
15412;SDS011;7805;49.554;7.632;2023-08-31T05:45:09;8.93;;;4.40;;
15412;SDS011;7805;49.554;7.632;2023-08-31T05:47:35;8.17;;;4.57;;
15412;SDS011;7805;49.554;7.632;2023-08-31T05:50:01;10.10;;;8.70;;
15412;SDS011;7805;49.554;7.632;2023-08-31T05:52:27;12.93;;;11.60;;
15412;SDS011;7805;49.554;7.632;2023-08-31T05:54:53;11.17;;;9.00;;
15412;SDS011;7805;49.554;7.632;2023-08-31T05:57:19;5.90;;;4.70;;
15412;SDS011;7805;49.554;7.632;2023-08-31T05:59:45;5.83;;;3.97;;
15412;SDS011;7805;49.554;7.632;2023-08-31T06:02:10;6.30;;;3.70;;
15412;SDS011;7805;49.554;7.632;2023-08-31T06:04:36;7.77;;;4.33;;
15412;SDS011;7805;49.554;7.632;2023-08-31T06:07:01;7.53;;;3.03;;
15412;SDS011;7805;49.554;7.632;2023-08-31T06:09:28;4.17;;;2.80;;
15412;SDS011;7805;49.554;7.632;2023-08-31T06:11:53;6.60;;;3.23;;
15412;SDS011;7805;49.554;7.632;2023-08-31T06:14:19;13.53;;;12.30;;
15412;SDS011;7805;49.554;7.632;2023-08-31T06:16:45;8.20;;;6.17;;
15412;SDS011;7805;49.554;7.632;2023-08-31T06:19:10;4.50;;;3.03;;
15412;SDS011;7805;49.554;7.632;2023-08-31T06:21:36;5.53;;;2.90;;
15412;SDS011;7805;49.554;7.632;2023-08-31T06:24:01;5.53;;;3.00;;
15412;SDS011;7805;49.554;7.632;2023-08-31T06:26:28;5.83;;;3.17;;
15412;SDS011;7805;49.554;7.632;2023-08-31T06:28:54;9.00;;;3.10;;
15412;SDS011;7805;49.554;7.632;2023-08-31T06:31:20;4.63;;;3.33;;
15412;SDS011;7805;49.554;7.632;2023-08-31T06:33:45;6.70;;;3.50;;
15412;SDS011;7805;49.554;7.632;2023-08-31T06:36:11;7.97;;;3.10;;
15412;SDS011;7805;49.554;7.632;2023-08-31T06:38:36;8.60;;;3.27;;
15412;SDS011;7805;49.554;7.632;2023-08-31T06:41:02;8.80;;;3.30;;
15412;SDS011;7805;49.554;7.632;2023-08-31T06:43:28;6.27;;;3.13;;
15412;SDS011;7805;49.554;7.632;2023-08-31T06:45:53;8.57;;;3.27;;
15412;SDS011;7805;49.554;7.632;2023-08-31T06:48:19;5.70;;;3.07;;
15412;SDS011;7805;49.554;7.632;2023-08-31T06:50:45;9.20;;;3.80;;
15412;SDS011;7805;49.554;7.632;2023-08-31T06:53:12;11.33;;;3.13;;
15412;SDS011;7805;49.554;7.632;2023-08-31T06:55:37;5.13;;;2.63;;
15412;SDS011;7805;49.554;7.632;2023-08-31T06:58:03;4.70;;;2.57;;
15412;SDS011;7805;49.554;7.632;2023-08-31T07:00:29;7.00;;;2.80;;
15412;SDS011;7805;49.554;7.632;2023-08-31T07:02:57;5.00;;;2.63;;
15412;SDS011;7805;49.554;7.632;2023-08-31T07:05:24;6.40;;;2.70;;
15412;SDS011;7805;49.554;7.632;2023-08-31T07:07:53;7.40;;;2.60;;
15412;SDS011;7805;49.554;7.632;2023-08-31T07:10:20;5.27;;;3.30;;
15412;SDS011;7805;49.554;7.632;2023-08-31T07:12:46;5.87;;;3.27;;
15412;SDS011;7805;49.554;7.632;2023-08-31T07:15:12;9.63;;;5.63;;
15412;SDS011;7805;49.554;7.632;2023-08-31T07:17:37;6.67;;;2.73;;
15412;SDS011;7805;49.554;7.632;2023-08-31T07:20:03;4.67;;;2.80;;
15412;SDS011;7805;49.554;7.632;2023-08-31T07:22:33;6.87;;;5.90;;
15412;SDS011;7805;49.554;7.632;2023-08-31T07:24:59;5.40;;;2.90;;
15412;SDS011;7805;49.554;7.632;2023-08-31T07:27:25;5.93;;;2.90;;
15412;SDS011;7805;49.554;7.632;2023-08-31T07:29:50;4.23;;;2.30;;
15412;SDS011;7805;49.554;7.632;2023-08-31T07:32:19;5.57;;;2.07;;
15412;SDS011;7805;49.554;7.632;2023-08-31T07:34:44;9.80;;;2.60;;
15412;SDS011;7805;49.554;7.632;2023-08-31T07:37:10;4.63;;;2.40;;
15412;SDS011;7805;49.554;7.632;2023-08-31T07:39:35;6.73;;;2.67;;
15412;SDS011;7805;49.554;7.632;2023-08-31T07:42:01;4.47;;;2.10;;
15412;SDS011;7805;49.554;7.632;2023-08-31T07:44:27;4.80;;;2.10;;
15412;SDS011;7805;49.554;7.632;2023-08-31T07:46:52;5.20;;;2.50;;
15412;SDS011;7805;49.554;7.632;2023-08-31T07:49:18;6.47;;;2.80;;
15412;SDS011;7805;49.554;7.632;2023-08-31T07:51:44;7.50;;;3.90;;
15412;SDS011;7805;49.554;7.632;2023-08-31T07:54:09;5.27;;;2.67;;
15412;SDS011;7805;49.554;7.632;2023-08-31T07:56:35;6.57;;;3.17;;
15412;SDS011;7805;49.554;7.632;2023-08-31T07:59:00;4.63;;;2.57;;
15412;SDS011;7805;49.554;7.632;2023-08-31T08:01:26;5.03;;;2.30;;
15412;SDS011;7805;49.554;7.632;2023-08-31T08:03:52;5.07;;;2.40;;
15412;SDS011;7805;49.554;7.632;2023-08-31T08:06:17;5.60;;;1.90;;
15412;SDS011;7805;49.554;7.632;2023-08-31T08:08:43;6.27;;;2.30;;
15412;SDS011;7805;49.554;7.632;2023-08-31T08:11:09;4.17;;;2.30;;
15412;SDS011;7805;49.554;7.632;2023-08-31T08:13:34;5.47;;;2.30;;
15412;SDS011;7805;49.554;7.632;2023-08-31T08:16:00;4.27;;;2.00;;
15412;SDS011;7805;49.554;7.632;2023-08-31T08:18:26;4.63;;;1.87;;
15412;SDS011;7805;49.554;7.632;2023-08-31T08:20:51;4.17;;;2.40;;
15412;SDS011;7805;49.554;7.632;2023-08-31T08:23:17;5.47;;;1.92;;
15412;SDS011;7805;49.554;7.632;2023-08-31T08:25:43;3.23;;;1.93;;
15412;SDS011;7805;49.554;7.632;2023-08-31T08:28:08;6.15;;;2.10;;
15412;SDS011;7805;49.554;7.632;2023-08-31T08:30:34;3.00;;;1.90;;
15412;SDS011;7805;49.554;7.632;2023-08-31T08:32:59;4.65;;;2.28;;
15412;SDS011;7805;49.554;7.632;2023-08-31T08:35:25;5.40;;;2.33;;
15412;SDS011;7805;49.554;7.632;2023-08-31T08:37:51;5.20;;;2.80;;
15412;SDS011;7805;49.554;7.632;2023-08-31T08:40:18;5.47;;;2.35;;
15412;SDS011;7805;49.554;7.632;2023-08-31T08:42:44;4.88;;;2.20;;
15412;SDS011;7805;49.554;7.632;2023-08-31T08:45:13;5.38;;;2.05;;
15412;SDS011;7805;49.554;7.632;2023-08-31T08:47:42;3.97;;;2.30;;
15412;SDS011;7805;49.554;7.632;2023-08-31T08:50:09;5.88;;;2.22;;
15412;SDS011;7805;49.554;7.632;2023-08-31T08:52:36;3.90;;;1.80;;
15412;SDS011;7805;49.554;7.632;2023-08-31T08:55:02;3.88;;;2.00;;
15412;SDS011;7805;49.554;7.632;2023-08-31T08:57:28;4.20;;;1.90;;
15412;SDS011;7805;49.554;7.632;2023-08-31T08:59:55;7.28;;;1.98;;
15412;SDS011;7805;49.554;7.632;2023-08-31T09:02:22;5.07;;;2.35;;
15412;SDS011;7805;49.554;7.632;2023-08-31T09:04:47;4.90;;;2.05;;
15412;SDS011;7805;49.554;7.632;2023-08-31T09:07:13;3.53;;;1.77;;
15412;SDS011;7805;49.554;7.632;2023-08-31T09:09:48;5.30;;;2.25;;
15412;SDS011;7805;49.554;7.632;2023-08-31T09:12:15;3.05;;;1.80;;
15412;SDS011;7805;49.554;7.632;2023-08-31T09:14:41;5.10;;;2.08;;
15412;SDS011;7805;49.554;7.632;2023-08-31T09:17:06;4.45;;;3.00;;
15412;SDS011;7805;49.554;7.632;2023-08-31T09:19:32;5.18;;;1.98;;
15412;SDS011;7805;49.554;7.632;2023-08-31T09:21:58;4.38;;;2.50;;
15412;SDS011;7805;49.554;7.632;2023-08-31T09:24:23;3.08;;;1.83;;
15412;SDS011;7805;49.554;7.632;2023-08-31T09:26:53;4.53;;;1.40;;
15412;SDS011;7805;49.554;7.632;2023-08-31T09:29:20;3.70;;;1.80;;
15412;SDS011;7805;49.554;7.632;2023-08-31T09:31:46;4.13;;;2.10;;
15412;SDS011;7805;49.554;7.632;2023-08-31T09:34:13;6.13;;;1.63;;
15412;SDS011;7805;49.554;7.632;2023-08-31T09:36:39;5.22;;;2.47;;
15412;SDS011;7805;49.554;7.632;2023-08-31T09:39:06;5.28;;;1.73;;
15412;SDS011;7805;49.554;7.632;2023-08-31T09:41:32;4.03;;;1.65;;
15412;SDS011;7805;49.554;7.632;2023-08-31T09:44:14;3.20;;;2.17;;
15412;SDS011;7805;49.554;7.632;2023-08-31T09:46:41;4.32;;;1.83;;
15412;SDS011;7805;49.554;7.632;2023-08-31T09:49:08;4.35;;;1.92;;
15412;SDS011;7805;49.554;7.632;2023-08-31T09:51:34;5.40;;;2.28;;
15412;SDS011;7805;49.554;7.632;2023-08-31T09:54:02;3.78;;;2.05;;
15412;SDS011;7805;49.554;7.632;2023-08-31T09:56:30;3.25;;;2.38;;
15412;SDS011;7805;49.554;7.632;2023-08-31T09:58:58;4.78;;;1.88;;
15412;SDS011;7805;49.554;7.632;2023-08-31T10:01:24;5.65;;;2.65;;
15412;SDS011;7805;49.554;7.632;2023-08-31T10:03:50;7.45;;;3.00;;
15412;SDS011;7805;49.554;7.632;2023-08-31T10:06:16;6.70;;;2.92;;
15412;SDS011;7805;49.554;7.632;2023-08-31T10:08:43;7.20;;;2.70;;
15412;SDS011;7805;49.554;7.632;2023-08-31T10:11:09;4.47;;;2.28;;
15412;SDS011;7805;49.554;7.632;2023-08-31T10:13:38;3.60;;;1.80;;
15412;SDS011;7805;49.554;7.632;2023-08-31T10:16:06;6.28;;;2.10;;
15412;SDS011;7805;49.554;7.632;2023-08-31T10:18:32;5.55;;;2.50;;
15412;SDS011;7805;49.554;7.632;2023-08-31T10:21:01;6.38;;;2.78;;
15412;SDS011;7805;49.554;7.632;2023-08-31T10:23:27;5.80;;;2.30;;
15412;SDS011;7805;49.554;7.632;2023-08-31T10:28:23;5.90;;;2.33;;
15412;SDS011;7805;49.554;7.632;2023-08-31T10:36:11;7.32;;;2.50;;
15412;SDS011;7805;49.554;7.632;2023-08-31T10:38:37;4.53;;;2.63;;
15412;SDS011;7805;49.554;7.632;2023-08-31T10:43:43;7.07;;;2.53;;
15412;SDS011;7805;49.554;7.632;2023-08-31T10:51:21;6.70;;;2.65;;
15412;SDS011;7805;49.554;7.632;2023-08-31T10:59:22;3.80;;;2.47;;
15412;SDS011;7805;49.554;7.632;2023-08-31T11:01:59;4.78;;;1.95;;
15412;SDS011;7805;49.554;7.632;2023-08-31T11:04:28;6.90;;;2.90;;
15412;SDS011;7805;49.554;7.632;2023-08-31T11:07:14;6.72;;;2.70;;
15412;SDS011;7805;49.554;7.632;2023-08-31T11:09:44;6.28;;;2.65;;
15412;SDS011;7805;49.554;7.632;2023-08-31T11:12:10;5.60;;;3.17;;
15412;SDS011;7805;49.554;7.632;2023-08-31T11:14:37;8.38;;;3.33;;
15412;SDS011;7805;49.554;7.632;2023-08-31T11:17:03;5.40;;;2.03;;
15412;SDS011;7805;49.554;7.632;2023-08-31T11:19:30;4.45;;;2.42;;
15412;SDS011;7805;49.554;7.632;2023-08-31T11:22:02;7.72;;;2.55;;
15412;SDS011;7805;49.554;7.632;2023-08-31T11:24:29;7.05;;;2.83;;
15412;SDS011;7805;49.554;7.632;2023-08-31T11:26:58;4.28;;;2.97;;
15412;SDS011;7805;49.554;7.632;2023-08-31T11:29:24;6.78;;;3.03;;
15412;SDS011;7805;49.554;7.632;2023-08-31T11:31:50;6.32;;;2.97;;
15412;SDS011;7805;49.554;7.632;2023-08-31T11:34:17;7.50;;;2.90;;
15412;SDS011;7805;49.554;7.632;2023-08-31T11:36:43;4.03;;;2.80;;
15412;SDS011;7805;49.554;7.632;2023-08-31T11:39:14;4.03;;;2.20;;
15412;SDS011;7805;49.554;7.632;2023-08-31T11:41:42;5.90;;;2.60;;
15412;SDS011;7805;49.554;7.632;2023-08-31T11:44:09;6.13;;;2.30;;
15412;SDS011;7805;49.554;7.632;2023-08-31T11:46:37;6.43;;;2.45;;
15412;SDS011;7805;49.554;7.632;2023-08-31T11:49:05;4.85;;;2.53;;
15412;SDS011;7805;49.554;7.632;2023-08-31T11:51:32;5.47;;;2.40;;
15412;SDS011;7805;49.554;7.632;2023-08-31T11:53:59;6.10;;;2.70;;
15412;SDS011;7805;49.554;7.632;2023-08-31T11:56:27;4.60;;;2.38;;
15412;SDS011;7805;49.554;7.632;2023-08-31T11:59:11;8.65;;;2.95;;
15412;SDS011;7805;49.554;7.632;2023-08-31T12:01:40;5.05;;;2.67;;
15412;SDS011;7805;49.554;7.632;2023-08-31T12:04:14;5.47;;;2.70;;
15412;SDS011;7805;49.554;7.632;2023-08-31T12:06:51;5.15;;;2.60;;
15412;SDS011;7805;49.554;7.632;2023-08-31T12:09:18;4.45;;;2.20;;
15412;SDS011;7805;49.554;7.632;2023-08-31T12:11:51;8.10;;;2.42;;
15412;SDS011;7805;49.554;7.632;2023-08-31T12:14:20;7.47;;;2.47;;
15412;SDS011;7805;49.554;7.632;2023-08-31T12:16:47;6.47;;;2.70;;
15412;SDS011;7805;49.554;7.632;2023-08-31T12:19:13;7.45;;;2.67;;
15412;SDS011;7805;49.554;7.632;2023-08-31T12:21:39;6.53;;;2.28;;
15412;SDS011;7805;49.554;7.632;2023-08-31T12:24:06;4.53;;;2.45;;
15412;SDS011;7805;49.554;7.632;2023-08-31T12:26:32;8.85;;;2.50;;
15412;SDS011;7805;49.554;7.632;2023-08-31T12:28:57;4.18;;;2.13;;
15412;SDS011;7805;49.554;7.632;2023-08-31T12:31:23;7.68;;;2.50;;
15412;SDS011;7805;49.554;7.632;2023-08-31T12:33:49;4.43;;;2.50;;
15412;SDS011;7805;49.554;7.632;2023-08-31T12:36:15;7.15;;;2.67;;
15412;SDS011;7805;49.554;7.632;2023-08-31T12:38:40;4.95;;;2.55;;
15412;SDS011;7805;49.554;7.632;2023-08-31T12:41:06;6.97;;;2.38;;
15412;SDS011;7805;49.554;7.632;2023-08-31T12:43:32;6.25;;;2.20;;
15412;SDS011;7805;49.554;7.632;2023-08-31T12:45:58;3.78;;;2.30;;
15412;SDS011;7805;49.554;7.632;2023-08-31T12:48:24;5.65;;;2.30;;
15412;SDS011;7805;49.554;7.632;2023-08-31T12:50:49;4.25;;;2.05;;
15412;SDS011;7805;49.554;7.632;2023-08-31T12:53:15;4.38;;;2.05;;
15412;SDS011;7805;49.554;7.632;2023-08-31T12:55:41;4.22;;;2.00;;
15412;SDS011;7805;49.554;7.632;2023-08-31T12:58:06;4.63;;;2.40;;
15412;SDS011;7805;49.554;7.632;2023-08-31T13:00:32;7.57;;;2.45;;
15412;SDS011;7805;49.554;7.632;2023-08-31T13:02:58;7.75;;;2.17;;
15412;SDS011;7805;49.554;7.632;2023-08-31T13:05:25;6.20;;;2.55;;
15412;SDS011;7805;49.554;7.632;2023-08-31T13:07:52;3.72;;;2.28;;
15412;SDS011;7805;49.554;7.632;2023-08-31T13:10:18;2.80;;;2.17;;
15412;SDS011;7805;49.554;7.632;2023-08-31T13:12:43;5.03;;;2.22;;
15412;SDS011;7805;49.554;7.632;2023-08-31T13:15:09;3.95;;;2.05;;
15412;SDS011;7805;49.554;7.632;2023-08-31T13:17:35;5.75;;;2.33;;
15412;SDS011;7805;49.554;7.632;2023-08-31T13:20:00;4.32;;;1.85;;
15412;SDS011;7805;49.554;7.632;2023-08-31T13:22:27;3.78;;;2.30;;
15412;SDS011;7805;49.554;7.632;2023-08-31T13:24:53;4.97;;;2.20;;
15412;SDS011;7805;49.554;7.632;2023-08-31T13:27:19;5.00;;;2.20;;
15412;SDS011;7805;49.554;7.632;2023-08-31T13:29:44;3.70;;;2.10;;
15412;SDS011;7805;49.554;7.632;2023-08-31T13:32:10;6.63;;;2.45;;
15412;SDS011;7805;49.554;7.632;2023-08-31T13:34:36;5.00;;;2.35;;
15412;SDS011;7805;49.554;7.632;2023-08-31T13:37:02;4.85;;;2.63;;
15412;SDS011;7805;49.554;7.632;2023-08-31T13:39:28;3.53;;;2.10;;
15412;SDS011;7805;49.554;7.632;2023-08-31T13:41:54;5.85;;;2.50;;
15412;SDS011;7805;49.554;7.632;2023-08-31T13:44:20;3.97;;;2.13;;
15412;SDS011;7805;49.554;7.632;2023-08-31T13:46:47;4.13;;;2.17;;
15412;SDS011;7805;49.554;7.632;2023-08-31T13:49:13;6.07;;;2.17;;
15412;SDS011;7805;49.554;7.632;2023-08-31T13:51:39;5.90;;;2.53;;
15412;SDS011;7805;49.554;7.632;2023-08-31T13:54:05;9.10;;;3.30;;
15412;SDS011;7805;49.554;7.632;2023-08-31T13:56:32;3.88;;;2.05;;
15412;SDS011;7805;49.554;7.632;2023-08-31T13:58:58;5.28;;;2.28;;
15412;SDS011;7805;49.554;7.632;2023-08-31T14:01:24;5.57;;;2.10;;
15412;SDS011;7805;49.554;7.632;2023-08-31T14:03:49;6.57;;;2.53;;
15412;SDS011;7805;49.554;7.632;2023-08-31T14:06:15;4.07;;;2.42;;
15412;SDS011;7805;49.554;7.632;2023-08-31T14:08:41;5.13;;;2.55;;
15412;SDS011;7805;49.554;7.632;2023-08-31T14:11:06;4.32;;;2.25;;
15412;SDS011;7805;49.554;7.632;2023-08-31T14:13:32;4.55;;;1.98;;
15412;SDS011;7805;49.554;7.632;2023-08-31T14:15:59;4.15;;;2.28;;
15412;SDS011;7805;49.554;7.632;2023-08-31T14:18:26;5.88;;;3.60;;
15412;SDS011;7805;49.554;7.632;2023-08-31T14:20:54;3.70;;;2.90;;
15412;SDS011;7805;49.554;7.632;2023-08-31T14:23:20;4.78;;;2.47;;
15412;SDS011;7805;49.554;7.632;2023-08-31T14:25:45;3.45;;;2.30;;
15412;SDS011;7805;49.554;7.632;2023-08-31T14:28:11;5.43;;;2.08;;
15412;SDS011;7805;49.554;7.632;2023-08-31T14:30:37;6.20;;;2.42;;
15412;SDS011;7805;49.554;7.632;2023-08-31T14:33:03;4.13;;;2.28;;
15412;SDS011;7805;49.554;7.632;2023-08-31T14:35:29;4.82;;;2.15;;
15412;SDS011;7805;49.554;7.632;2023-08-31T14:37:55;7.07;;;2.53;;
15412;SDS011;7805;49.554;7.632;2023-08-31T14:40:21;3.72;;;2.15;;
15412;SDS011;7805;49.554;7.632;2023-08-31T14:42:46;4.75;;;2.33;;
15412;SDS011;7805;49.554;7.632;2023-08-31T14:45:12;6.50;;;2.42;;
15412;SDS011;7805;49.554;7.632;2023-08-31T14:47:38;5.53;;;2.40;;
15412;SDS011;7805;49.554;7.632;2023-08-31T14:50:03;5.60;;;2.55;;
15412;SDS011;7805;49.554;7.632;2023-08-31T14:52:29;6.30;;;2.42;;
15412;SDS011;7805;49.554;7.632;2023-08-31T14:54:55;9.18;;;2.95;;
15412;SDS011;7805;49.554;7.632;2023-08-31T14:57:21;7.35;;;2.50;;
15412;SDS011;7805;49.554;7.632;2023-08-31T14:59:46;7.30;;;2.70;;
15412;SDS011;7805;49.554;7.632;2023-08-31T15:02:12;6.50;;;2.83;;
15412;SDS011;7805;49.554;7.632;2023-08-31T15:04:39;4.95;;;2.50;;
15412;SDS011;7805;49.554;7.632;2023-08-31T15:07:05;7.53;;;2.53;;
15412;SDS011;7805;49.554;7.632;2023-08-31T15:09:30;7.55;;;2.42;;
15412;SDS011;7805;49.554;7.632;2023-08-31T15:11:57;4.47;;;2.20;;
15412;SDS011;7805;49.554;7.632;2023-08-31T15:14:23;4.13;;;2.13;;
15412;SDS011;7805;49.554;7.632;2023-08-31T15:16:48;5.32;;;2.40;;
15412;SDS011;7805;49.554;7.632;2023-08-31T15:19:14;5.50;;;2.33;;
15412;SDS011;7805;49.554;7.632;2023-08-31T15:21:40;6.35;;;2.00;;
15412;SDS011;7805;49.554;7.632;2023-08-31T15:24:05;6.05;;;2.85;;